Terminal Aerodrome Forecast
Issued by NWS

Home | Current Version | Previous Version | Text Only | Print | Product List | Glossary On
Versions: 1 2 3 4 5 6 7 8 9 10 11 12 13 14 15 16 17 18 19
000
FTUS43 KMQT 172300
TAFCMX
TAF
KCMX 172337Z 1800/1824 28010KT 3SM BR OVC003
     FM180200 29010KT 5SM BR OVC007
     FM180500 29009KT P6SM OVC015
     FM181300 30010KT P6SM SCT030=

USA.gov is the U.S. government's official web portal to all federal, state and local government web resources and services.